-18.11C
небольшая облачность
небольшая облачность
Дата и времяТемператураДавление, мм рт.ст.Влажность, %Осадки
МинимумМаксимум
14.04.2024 08:00-18.11C-16.32C75389ясно
14.04.2024 11:00-16.26C-12.57C75385ясно
14.04.2024 14:00-13.5C-11.19C75680ясно
14.04.2024 17:00-11.7C-11.7C75883ясно
14.04.2024 20:00-19.9C-19.9C75994ясно
14.04.2024 23:00-24.4C-24.4C75994небольшая облачность
15.04.2024 02:00-27.04C-27.04C76097переменная облачность
15.04.2024 05:00-28.22C-28.22C76198облачно с прояснениями
15.04.2024 08:00-20.92C-20.92C76095пасмурно
15.04.2024 11:00-15.34C-15.34C76085пасмурно
15.04.2024 14:00-11.26C-11.26C75988облачно с прояснениями
15.04.2024 17:00-8.6C-8.6C75892облачно с прояснениями
15.04.2024 20:00-9.68C-9.68C75697пасмурно
15.04.2024 23:00-5.67C-5.67C75697небольшой снег
16.04.2024 02:00-2.76C-2.76C75497небольшой снег
16.04.2024 05:00-3.56C-3.56C75395пасмурно
16.04.2024 08:00-2.96C-2.96C75394пасмурно
16.04.2024 11:00-0.87C-0.87C75392пасмурно
16.04.2024 14:000.05C0.05C75399пасмурно
16.04.2024 17:000.19C0.19C75396пасмурно
16.04.2024 20:000.11C0.11C75297пасмурно
16.04.2024 23:000.36C0.36C75298небольшой снег
17.04.2024 02:000.62C0.62C750100небольшой дождь
17.04.2024 05:00-4.35C-4.35C75096небольшой снег
17.04.2024 08:00-6.5C-6.5C75094небольшой снег
17.04.2024 11:00-6.67C-6.67C75094небольшой снег
17.04.2024 14:00-7.51C-7.51C75094снег
17.04.2024 17:00-8.67C-8.67C75094снег
17.04.2024 20:00-9.98C-9.98C75193снег
17.04.2024 23:00-11.1C-11.1C75293небольшой снег
18.04.2024 02:00-12.1C-12.1C75291небольшой снег
18.04.2024 05:00-12.75C-12.75C75289небольшой снег
18.04.2024 08:00-12.58C-12.58C75388небольшой снег
18.04.2024 11:00-11.25C-11.25C75576пасмурно
18.04.2024 14:00-10.76C-10.76C75772пасмурно
18.04.2024 17:00-11.63C-11.63C75974пасмурно
18.04.2024 20:00-14.38C-14.38C76280пасмурно
18.04.2024 23:00-16.74C-16.74C76486пасмурно
19.04.2024 02:00-18.73C-18.73C76591пасмурно
19.04.2024 05:00-18.83C-18.83C76793пасмурно
Дата и время наблюдения: 14.04.2024 07:26:30